
Distance (Route):
Temperature : 1.7°C
Humidity : 47.0%
Pressure : 0hPa| Receiver | Date | Latitude | Longitude | Direction | Speed | Altitude | Climb | Temperature | Humidity | Pressure | Voltage | Killtimer | Uptime | BKT | XDATA |
|---|---|---|---|---|---|---|---|---|---|---|---|---|---|---|---|
| LZ4TU-5 | 2026-09-03 19:06:07 | 42.96882 | 22.32112 | 153° | 15km/h | 3512m | -16.2m/s | 1.7°C | 47.0% | 0hPa | 0V | 00:00:00 | 00:00:00 | 00:00:00 | |
| LZ4TU-5 | 2026-09-03 19:06:03 | 42.96896 | 22.32102 | 157° | 16km/h | 3580m | -16.6m/s | 1.4°C | 42.1% | 0hPa | 0V | 00:00:00 | 00:00:00 | 00:00:00 | |
| LZ4TU-5 | 2026-09-03 19:05:59 | 42.96911 | 22.32094 | 159° | 16km/h | 3648m | -16.4m/s | 1.1°C | 35.7% | 0hPa | 0V | 00:00:00 | 00:00:00 | 00:00:00 | |
| LZ4TU-5 | 2026-09-03 19:05:54 | 42.96933 | 22.32083 | 160° | 20km/h | 3734m | -16.8m/s | 0.5°C | 30.0% | 0hPa | 0V | 00:00:00 | 00:00:00 | 00:00:00 | |
| LZ4TU-5 | 2026-09-03 19:05:49 | 42.96958 | 22.32069 | 162° | 22km/h | 3820m | -17.1m/s | -0.2°C | 28.2% | 0hPa | 0V | 00:00:00 | 00:00:00 | 00:00:00 | |
| LZ4TU-5 | 2026-09-03 19:05:45 | 42.96981 | 22.32059 | 162° | 24km/h | 3885m | -16.9m/s | -0.7°C | 27.4% | 0hPa | 0V | 00:00:00 | 00:00:00 | 00:00:00 | |
| LZ4TU-5 | 2026-09-03 19:05:40 | 42.97007 | 22.32047 | 163° | 22km/h | 3967m | -16.8m/s | -1.3°C | 27.2% | 0hPa | 0V | 00:00:00 | 00:00:00 | 00:00:00 | |
| LZ4TU-5 | 2026-09-03 19:05:36 | 42.97027 | 22.32037 | 162° | 20km/h | 4037m | -17.2m/s | -1.9°C | 29.0% | 0hPa | 0V | 00:00:00 | 00:00:00 | 00:00:00 | |
| LZ4TU-5 | 2026-09-03 19:05:31 | 42.97051 | 22.32025 | 158° | 22km/h | 4127m | -17.4m/s | -2.5°C | 29.7% | 0hPa | 0V | 00:00:00 | 00:00:00 | 00:00:00 | |
| LZ4TU-5 | 2026-09-03 19:05:27 | 42.97070 | 22.32013 | 153° | 20km/h | 4200m | -17.3m/s | -3.0°C | 30.5% | 0hPa | 0V | 00:00:00 | 00:00:00 | 00:00:00 | |
| LZ4TU-5 | 2026-09-03 19:04:27 | 42.97323 | 22.31693 | 151° | 27km/h | 5236m | -17.5m/s | -9.1°C | 61.2% | 0hPa | 0V | 00:00:00 | 00:00:00 | 00:00:00 | |
| LZ4TU-5 | 2026-09-03 19:04:22 | 42.97353 | 22.31670 | 151° | 27km/h | 5326m | -17.5m/s | -9.7°C | 0% | 0hPa | 0V | 00:00:00 | 00:00:00 | 00:00:00 | |
| LZ4TU-5 | 2026-09-03 19:03:22 | 42.97673 | 22.31286 | 135° | 35km/h | 6389m | -18.3m/s | -16.8°C | 48.3% | 0hPa | 0V | 00:00:00 | 00:00:00 | 00:00:00 | |
| LZ4TU-5 | 2026-09-03 19:03:17 | 42.97704 | 22.31241 | 136° | 38km/h | 6483m | -18.1m/s | -17.1°C | 30.8% | 0hPa | 0V | 00:00:00 | 00:00:00 | 00:00:00 | |
| LZ4TU-5 | 2026-09-03 19:02:17 | 42.98257 | 22.30694 | 153° | 71km/h | 7622m | -19.7m/s | -23.8°C | 13.4% | 0hPa | 0V | 00:00:00 | 00:00:00 | 00:00:00 | |
| LZ4TU-5 | 2026-09-03 19:02:12 | 42.98341 | 22.30635 | 154° | 78km/h | 7724m | -19.8m/s | -24.4°C | 0% | 0hPa | 0V | 00:00:00 | 00:00:00 | 00:00:00 | |
| LZ4TU-5 | 2026-09-03 19:01:12 | 42.99239 | 22.29745 | 142° | 69km/h | 8909m | -18.6m/s | -34.2°C | 25.0% | 0hPa | 0V | 00:00:00 | 00:00:00 | 00:00:00 | |
| LZ4TU-5 | 2026-09-03 19:01:07 | 42.99307 | 22.29673 | 143° | 69km/h | 9003m | -17.9m/s | -35.0°C | 27.6% | 0hPa | 0V | 00:00:00 | 00:00:00 | 00:00:00 | |
| LZ4TU-5 | 2026-09-03 19:00:07 | 43.00229 | 22.28795 | 154° | 75km/h | 10170m | -20.5m/s | -45.1°C | 47.5% | 0hPa | 0V | 00:00:00 | 00:00:00 | 00:00:00 | |
| LZ4TU-5 | 2026-09-03 19:00:02 | 43.00313 | 22.28739 | 156° | 75km/h | 10278m | -20.5m/s | -45.9°C | 0% | 0hPa | 0V | 00:00:00 | 00:00:00 | 00:00:00 | |
| LZ4TU-5 | 2026-09-03 18:58:38 | 43.01645 | 22.27501 | 130° | 75km/h | 12096m | -23.1m/s | -53.9°C | 6.9% | 0hPa | 0V | 00:00:00 | 00:00:00 | 00:00:00 | |
| LZ4TU-5 | 2026-09-03 18:58:33 | 43.01700 | 22.27409 | 125° | 60km/h | 12212m | -23.5m/s | -52.1°C | 5.5% | 0hPa | 0V | 00:00:00 | 00:00:00 | 00:00:00 | |
| LZ4TU-5 | 2026-09-03 18:57:27 | 43.02093 | 22.26048 | 117° | 62km/h | 13885m | -27.1m/s | -53.6°C | 0.0% | 0hPa | 0V | 00:00:00 | 00:00:00 | 00:00:00 | |
| LZ4TU-5 | 2026-09-03 18:57:22 | 43.02130 | 22.25960 | 125° | 57km/h | 14022m | -27.0m/s | -53.7°C | 0% | 0hPa | 0V | 00:00:00 | 00:00:00 | 00:00:00 | |
| LZ4TU-5 | 2026-09-03 18:56:19 | 43.02357 | 22.24923 | 101° | 46km/h | 15956m | -31.6m/s | -55.3°C | 0.0% | 0hPa | 0V | 00:00:00 | 00:00:00 | 00:00:00 | |
| LZ4TU-5 | 2026-09-03 18:56:15 | 43.02365 | 22.24862 | 87° | 40km/h | 16080m | -31.6m/s | -55.7°C | 0.0% | 0hPa | 0V | 00:00:00 | 00:00:00 | 00:00:00 | |
| LZ4TU-5 | 2026-09-03 18:55:13 | 43.02348 | 22.24161 | 62° | 35km/h | 18148m | -36.3m/s | -57.2°C | 0.0% | 0hPa | 0V | 00:00:00 | 00:00:00 | 00:00:00 | |
| LZ4TU-5 | 2026-09-03 18:55:08 | 43.02331 | 22.24102 | 80° | 44km/h | 18332m | -36.8m/s | -57.1°C | 0% | 0hPa | 0V | 00:00:00 | 00:00:00 | 00:00:00 | |
| LZ4TU-5 | 2026-09-03 18:54:05 | 43.02490 | 22.23773 | 96° | 13km/h | 21064m | -50.5m/s | -53.2°C | 0.0% | 0hPa | 0V | 00:00:00 | 00:00:00 | 00:00:00 | |
| LZ4TU-5 | 2026-09-03 18:54:00 | 43.02495 | 22.23753 | 125° | 15km/h | 21312m | -52.0m/s | -53.2°C | 0.0% | 0hPa | 0V | 00:00:00 | 00:00:00 | 00:00:00 | |
| OM5KV | 2026-09-03 18:51:28 | 43.02729 | 22.24240 | 267° | 46km/h | 31760m | -66.4m/s | -37.2°C | 0.0% | 0hPa | 0V | 00:00:00 | 00:00:00 | 00:00:00 | |
| OM5KV | 2026-09-03 18:51:13 | 43.02739 | 22.24531 | 315° | 60km/h | 32227m | 6.1m/s | -38.2°C | 0.0% | 0hPa | 0V | 00:00:00 | 00:00:00 | 00:00:00 | |
| OM5KV | 2026-09-03 18:50:40 | 43.02589 | 22.24928 | 317° | 66km/h | 32017m | 8.7m/s | -38.6°C | 0.0% | 0hPa | 0V | 00:00:00 | 00:00:00 | 00:00:00 | |
| OM5KV | 2026-09-03 18:50:32 | 43.02574 | 22.25034 | 251° | 26km/h | 31970m | 4.1m/s | -38.5°C | 0.0% | 0hPa | 0V | 00:00:00 | 00:00:00 | 00:00:00 | |
| OM5KV | 2026-09-03 18:50:26 | 43.02555 | 22.25133 | 283° | 49km/h | 31930m | 4.4m/s | -38.5°C | 0.0% | 0hPa | 0V | 00:00:00 | 00:00:00 | 00:00:00 | |
| LZ4TU-5 | 2026-09-03 18:47:01 | 43.02512 | 22.26903 | 271° | 29km/h | 30588m | 7.2m/s | -42.2°C | 0.0% | 0hPa | 0V | 00:00:00 | 00:00:00 | 00:00:00 | |
| LZ4TU-5 | 2026-09-03 18:46:56 | 43.02521 | 22.26945 | 289° | 22km/h | 30553m | 7.3m/s | -42.0°C | 0.0% | 0hPa | 0V | 00:00:00 | 00:00:00 | 00:00:00 | |
| LZ4TU-5 | 2026-09-03 18:45:41 | 43.02485 | 22.27429 | 307° | 37km/h | 30038m | 5.9m/s | -42.3°C | 0.0% | 0hPa | 0V | 00:00:00 | 00:00:00 | 00:00:00 | |
| LZ4TU-5 | 2026-09-03 18:45:37 | 43.02482 | 22.27468 | 222° | 29km/h | 30012m | 8.6m/s | -42.3°C | 0.0% | 0hPa | 0V | 00:00:00 | 00:00:00 | 00:00:00 | |
| LZ4TU-5 | 2026-09-03 18:44:24 | 43.02523 | 22.27713 | 209° | 16km/h | 29530m | 6.8m/s | -44.1°C | 0.0% | 0hPa | 0V | 00:00:00 | 00:00:00 | 00:00:00 | |
| LZ4TU-5 | 2026-09-03 18:44:19 | 43.02534 | 22.27743 | 321° | 13km/h | 29499m | 6.9m/s | -44.1°C | 0% | 0hPa | 0V | 00:00:00 | 00:00:00 | 00:00:00 | |
| LZ4TU-5 | 2026-09-03 18:42:49 | 43.02588 | 22.28187 | 226° | 15km/h | 28900m | 8.4m/s | -45.4°C | 0.0% | 0hPa | 0V | 00:00:00 | 00:00:00 | 00:00:00 | |
| LZ4TU-5 | 2026-09-03 18:42:45 | 43.02582 | 22.28184 | 344° | 16km/h | 28875m | 6.7m/s | -45.5°C | 0.0% | 0hPa | 0V | 00:00:00 | 00:00:00 | 00:00:00 | |
| LZ4TU-5 | 2026-09-03 18:41:11 | 43.02666 | 22.28619 | 284° | 26km/h | 28281m | 6.4m/s | -47.7°C | 0.0% | 0hPa | 0V | 00:00:00 | 00:00:00 | 00:00:00 | |
| LZ4TU-5 | 2026-09-03 18:41:06 | 43.02627 | 22.28671 | 309° | 35km/h | 28248m | 4.4m/s | -47.7°C | 0.0% | 0hPa | 0V | 00:00:00 | 00:00:00 | 00:00:00 | |
| LZ4TU-5 | 2026-09-03 18:41:01 | 43.02632 | 22.28719 | 245° | 31km/h | 28212m | 5.8m/s | -47.5°C | 0.0% | 0hPa | 0V | 00:00:00 | 00:00:00 | 00:00:00 | |
| LZ4TU-5 | 2026-09-03 18:38:52 | 43.02750 | 22.29603 | 296° | 27km/h | 27393m | 7.7m/s | -49.2°C | 0.0% | 0hPa | 0V | 00:00:00 | 00:00:00 | 00:00:00 | |
| LZ4TU-5 | 2026-09-03 18:38:47 | 43.02736 | 22.29659 | 257° | 37km/h | 27361m | 6.6m/s | -49.5°C | 0.0% | 0hPa | 0V | 00:00:00 | 00:00:00 | 00:00:00 | |
| LZ4TU-5 | 2026-09-03 18:37:22 | 43.03050 | 22.30588 | 212° | 42km/h | 26838m | 5.4m/s | -48.9°C | 0.0% | 0hPa | 0V | 00:00:00 | 00:00:00 | 00:00:00 | |
| LZ4TU-5 | 2026-09-03 18:37:18 | 43.03074 | 22.30625 | 234° | 37km/h | 26815m | 5.4m/s | -48.9°C | 0.0% | 0hPa | 0V | 00:00:00 | 00:00:00 | 00:00:00 | |
| LZ4TU-5 | 2026-09-03 18:35:55 | 43.03732 | 22.30717 | 172° | 35km/h | 26298m | 4.7m/s | -49.8°C | 0.0% | 0hPa | 0V | 00:00:00 | 00:00:00 | 00:00:00 | |
| LZ4TU-5 | 2026-09-03 18:35:50 | 43.03792 | 22.30690 | 157° | 47km/h | 26266m | 7.5m/s | -50.0°C | 0% | 0hPa | 0V | 00:00:00 | 00:00:00 | 00:00:00 | |
| LZ4TU-5 | 2026-09-03 18:34:21 | 43.04173 | 22.30328 | 153° | 7km/h | 25697m | 6.0m/s | -49.8°C | 0.0% | 0hPa | 0V | 00:00:00 | 00:00:00 | 00:00:00 | |
| LZ4TU-5 | 2026-09-03 18:34:16 | 43.04188 | 22.30318 | 144° | 24km/h | 25666m | 5.3m/s | -49.8°C | 0.0% | 0hPa | 0V | 00:00:00 | 00:00:00 | 00:00:00 | |
| LZ4TU-5 | 2026-09-03 18:32:50 | 43.04445 | 22.30141 | 291° | 9km/h | 25117m | 6.2m/s | -50.0°C | 0.0% | 0hPa | 0V | 00:00:00 | 00:00:00 | 00:00:00 | |
| LZ4TU-5 | 2026-09-03 18:32:45 | 43.04451 | 22.30159 | 193° | 11km/h | 25085m | 5.6m/s | -49.9°C | 0.0% | 0hPa | 0V | 00:00:00 | 00:00:00 | 00:00:00 | |
| LZ4TU-5 | 2026-09-03 18:31:21 | 43.04567 | 22.30258 | 253° | 5km/h | 24574m | 6.8m/s | -51.5°C | 0.0% | 0hPa | 0V | 00:00:00 | 00:00:00 | 00:00:00 | |
| LZ4TU-5 | 2026-09-03 18:31:16 | 43.04553 | 22.30253 | 64° | 7km/h | 24545m | 4.0m/s | -51.7°C | 0.0% | 0hPa | 0V | 00:00:00 | 00:00:00 | 00:00:00 | |
| LZ4TU-5 | 2026-09-03 18:29:47 | 43.04844 | 22.30250 | 132° | 15km/h | 24007m | 6.8m/s | -53.0°C | 0% | 0hPa | 0V | 00:00:00 | 00:00:00 | 00:00:00 | |
| LZ4TU-5 | 2026-09-03 18:28:22 | 43.05103 | 22.30254 | 128° | 15km/h | 23503m | 5.7m/s | -53.1°C | 0.0% | 0hPa | 0V | 00:00:00 | 00:00:00 | 00:00:00 | |
| LZ4TU-5 | 2026-09-03 18:28:17 | 43.05142 | 22.30237 | 172° | 33km/h | 23473m | 6.3m/s | -53.1°C | 0.0% | 0hPa | 0V | 00:00:00 | 00:00:00 | 00:00:00 | |
| LZ4TU-5 | 2026-09-03 18:26:52 | 43.05340 | 22.30007 | 0° | 0km/h | 22970m | 5.6m/s | -53.1°C | 0.0% | 0hPa | 0V | 00:00:00 | 00:00:00 | 00:00:00 | |
| LZ4TU-5 | 2026-09-03 18:26:47 | 43.05348 | 22.30006 | 213° | 5km/h | 22942m | 4.8m/s | -53.1°C | 0.0% | 0hPa | 0V | 00:00:00 | 00:00:00 | 00:00:00 | |
| LZ4TU-5 | 2026-09-03 18:25:22 | 43.05361 | 22.30176 | 246° | 24km/h | 22447m | 6.0m/s | -53.1°C | 0.0% | 0hPa | 0V | 00:00:00 | 00:00:00 | 00:00:00 | |
| LZ4TU-5 | 2026-09-03 18:25:18 | 43.05367 | 22.30199 | 223° | 5km/h | 22424m | 5.6m/s | -53.3°C | 0% | 0hPa | 0V | 00:00:00 | 00:00:00 | 00:00:00 | |
| LZ4TU-5 | 2026-09-03 18:23:51 | 43.05411 | 22.30199 | 120° | 5km/h | 21921m | 6.7m/s | -54.3°C | 0.0% | 0hPa | 0V | 00:00:00 | 00:00:00 | 00:00:00 | |
| LZ4TU-5 | 2026-09-03 18:23:47 | 43.05426 | 22.30189 | 177° | 22km/h | 21899m | 5.7m/s | -54.5°C | 0.0% | 0hPa | 0V | 00:00:00 | 00:00:00 | 00:00:00 | |
| LZ4TU-5 | 2026-09-03 18:22:15 | 43.05611 | 22.29788 | 94° | 13km/h | 21388m | 4.4m/s | -55.3°C | 0.0% | 0hPa | 0V | 00:00:00 | 00:00:00 | 00:00:00 | |
| LZ4TU-5 | 2026-09-03 18:22:11 | 43.05613 | 22.29769 | 91° | 24km/h | 21365m | 6.6m/s | -55.2°C | 0.0% | 0hPa | 0V | 00:00:00 | 00:00:00 | 00:00:00 | |
| LZ4TU-5 | 2026-09-03 18:20:47 | 43.05549 | 22.29504 | 187° | 7km/h | 20897m | 5.1m/s | -56.0°C | 0.0% | 0hPa | 0V | 00:00:00 | 00:00:00 | 00:00:00 | |
| LZ4TU-5 | 2026-09-03 18:20:43 | 43.05561 | 22.29501 | 151° | 11km/h | 20875m | 6.3m/s | -56.1°C | 0.0% | 0hPa | 0V | 00:00:00 | 00:00:00 | 00:00:00 | |
| LZ4TU-5 | 2026-09-03 18:19:20 | 43.05707 | 22.29305 | 43° | 5km/h | 20398m | 5.3m/s | -56.0°C | 0.0% | 0hPa | 0V | 00:00:00 | 00:00:00 | 00:00:00 | |
| LZ4TU-5 | 2026-09-03 18:19:15 | 43.05714 | 22.29308 | 234° | 7km/h | 20369m | 5.8m/s | -56.1°C | 0.0% | 0hPa | 0V | 00:00:00 | 00:00:00 | 00:00:00 | |
| LZ4TU-5 | 2026-09-03 18:17:51 | 43.05845 | 22.29507 | 171° | 15km/h | 19885m | 4.6m/s | -55.3°C | 69.6% | 0hPa | 0V | 00:00:00 | 00:00:00 | 00:00:00 | |
| LZ4TU-5 | 2026-09-03 18:17:47 | 43.05859 | 22.29493 | 129° | 27km/h | 19864m | 5.5m/s | -55.3°C | 0.0% | 0hPa | 0V | 00:00:00 | 00:00:00 | 00:00:00 | |
| LZ4TU-5 | 2026-09-03 18:16:33 | 43.06218 | 22.28807 | 126° | 27km/h | 19480m | 5.9m/s | -57.1°C | 0.0% | 0hPa | 0V | 00:00:00 | 00:00:00 | 00:00:00 | |
| LZ4TU-5 | 2026-09-03 18:16:28 | 43.06231 | 22.28759 | 98° | 26km/h | 19455m | 4.1m/s | -57.4°C | 0.0% | 0hPa | 0V | 00:00:00 | 00:00:00 | 00:00:00 | |
| LZ4TU-5 | 2026-09-03 18:15:15 | 43.06345 | 22.27982 | 110° | 27km/h | 19073m | 4.8m/s | -57.0°C | 0.0% | 0hPa | 0V | 00:00:00 | 00:00:00 | 00:00:00 | |
| LZ4TU-5 | 2026-09-03 18:15:10 | 43.06347 | 22.27940 | 103° | 20km/h | 19045m | 5.5m/s | -56.8°C | 0.0% | 0hPa | 0V | 00:00:00 | 00:00:00 | 00:00:00 | |
| LZ4TU-5 | 2026-09-03 18:13:55 | 43.06526 | 22.27275 | 103° | 51km/h | 18631m | 4.2m/s | -56.8°C | 0.0% | 0hPa | 0V | 00:00:00 | 00:00:00 | 00:00:00 | |
| LZ4TU-5 | 2026-09-03 18:13:50 | 43.06542 | 22.27210 | 107° | 40km/h | 18604m | 4.4m/s | -56.9°C | 0.0% | 0hPa | 0V | 00:00:00 | 00:00:00 | 00:00:00 | |
| LZ4TU-5 | 2026-09-03 18:12:34 | 43.06244 | 22.26073 | 55° | 33km/h | 18201m | 4.8m/s | -57.1°C | 0.0% | 0hPa | 0V | 00:00:00 | 00:00:00 | 00:00:00 | |
| LZ4TU-5 | 2026-09-03 18:12:29 | 43.06220 | 22.26020 | 61° | 33km/h | 18175m | 4.6m/s | -57.3°C | 0% | 0hPa | 0V | 00:00:00 | 00:00:00 | 00:00:00 | |
| LZ4TU-5 | 2026-09-03 18:11:01 | 43.05856 | 22.25441 | 54° | 16km/h | 17702m | 4.2m/s | -54.2°C | 0.0% | 0hPa | 0V | 00:00:00 | 00:00:00 | 00:00:00 | |
| LZ4TU-5 | 2026-09-03 18:10:57 | 43.05838 | 22.25408 | 64° | 29km/h | 17680m | 5.5m/s | -54.0°C | 0.0% | 0hPa | 0V | 00:00:00 | 00:00:00 | 00:00:00 | |
| LZ4TU-5 | 2026-09-03 18:10:52 | 43.05834 | 22.25400 | 326° | 4km/h | 17651m | 5.0m/s | -53.8°C | 0.0% | 0hPa | 0V | 00:00:00 | 00:00:00 | 00:00:00 | |
| LZ4TU-5 | 2026-09-03 18:10:48 | 43.05824 | 22.25362 | 60° | 33km/h | 17623m | 4.8m/s | -53.6°C | 0.0% | 0hPa | 0V | 00:00:00 | 00:00:00 | 00:00:00 | |
| LZ4TU-5 | 2026-09-03 18:09:22 | 43.05994 | 22.24690 | 114° | 38km/h | 17170m | 6.1m/s | -55.8°C | 0.0% | 0hPa | 0V | 00:00:00 | 00:00:00 | 00:00:00 | |
| LZ4TU-5 | 2026-09-03 18:09:17 | 43.06011 | 22.24630 | 118° | 31km/h | 17145m | 4.9m/s | -55.8°C | 0.0% | 0hPa | 0V | 00:00:00 | 00:00:00 | 00:00:00 | |
| LZ4TU-5 | 2026-09-03 18:07:53 | 43.06372 | 22.23836 | 116° | 53km/h | 16710m | 4.6m/s | -55.6°C | 0.0% | 0hPa | 0V | 00:00:00 | 00:00:00 | 00:00:00 | |
| LZ4TU-5 | 2026-09-03 18:07:48 | 43.06395 | 22.23768 | 123° | 46km/h | 16686m | 5.4m/s | -55.8°C | 0.0% | 0hPa | 0V | 00:00:00 | 00:00:00 | 00:00:00 | |
| LZ4TU-5 | 2026-09-03 18:06:25 | 43.06473 | 22.22168 | 75° | 46km/h | 16280m | 4.3m/s | -56.1°C | 0.2% | 0hPa | 0V | 00:00:00 | 00:00:00 | 00:00:00 | |
| LZ4TU-5 | 2026-09-03 18:06:21 | 43.06460 | 22.22097 | 81° | 55km/h | 16260m | 4.6m/s | -56.1°C | 0% | 0hPa | 0V | 00:00:00 | 00:00:00 | 00:00:00 | |
| LZ4TU-5 | 2026-09-03 18:04:56 | 43.06296 | 22.21020 | 105° | 46km/h | 15835m | 4.9m/s | -55.4°C | 0.6% | 0hPa | 0V | 00:00:00 | 00:00:00 | 00:00:00 | |
| LZ4TU-5 | 2026-09-03 18:04:51 | 43.06316 | 22.20937 | 109° | 53km/h | 15809m | 5.5m/s | -55.4°C | 0.7% | 0hPa | 0V | 00:00:00 | 00:00:00 | 00:00:00 | |
| LZ4TU-5 | 2026-09-03 18:03:27 | 43.06611 | 22.19475 | 115° | 62km/h | 15415m | 4.6m/s | -56.7°C | 1.0% | 0hPa | 0V | 00:00:00 | 00:00:00 | 00:00:00 | |
| LZ4TU-5 | 2026-09-03 18:03:23 | 43.06638 | 22.19404 | 117° | 57km/h | 15396m | 4.0m/s | -57.0°C | 1.1% | 0hPa | 0V | 00:00:00 | 00:00:00 | 00:00:00 | |
| LZ4TU-5 | 2026-09-03 18:02:00 | 43.06798 | 22.17612 | 83° | 53km/h | 14985m | 4.9m/s | -56.9°C | 1.7% | 0hPa | 0V | 00:00:00 | 00:00:00 | 00:00:00 | |
| LZ4TU-5 | 2026-09-03 18:01:55 | 43.06788 | 22.17522 | 88° | 51km/h | 14961m | 4.4m/s | -56.7°C | 0% | 0hPa | 0V | 00:00:00 | 00:00:00 | 00:00:00 | |
| LZ4TU-5 | 2026-09-03 18:00:30 | 43.06991 | 22.16391 | 116° | 42km/h | 14510m | 5.3m/s | -55.0°C | 2.7% | 0hPa | 0V | 00:00:00 | 00:00:00 | 00:00:00 | |
| LZ4TU-5 | 2026-09-03 18:00:25 | 43.07018 | 22.16334 | 125° | 38km/h | 14487m | 3.9m/s | -55.0°C | 2.8% | 0hPa | 0V | 00:00:00 | 00:00:00 | 00:00:00 | |
| LZ4TU-5 | 2026-09-03 17:59:02 | 43.07455 | 22.14971 | 128° | 46km/h | 14080m | 5.1m/s | -54.2°C | 4.2% | 0hPa | 0V | 00:00:00 | 00:00:00 | 00:00:00 | |
| LZ4TU-5 | 2026-09-03 17:58:57 | 43.07489 | 22.14890 | 113° | 58km/h | 14056m | 4.9m/s | -54.1°C | 4.3% | 0hPa | 0V | 00:00:00 | 00:00:00 | 00:00:00 | |
| LZ4TU-5 | 2026-09-03 17:57:32 | 43.08174 | 22.13130 | 105° | 80km/h | 13636m | 5.1m/s | -54.7°C | 5.8% | 0hPa | 0V | 00:00:00 | 00:00:00 | 00:00:00 | |
| LZ4TU-5 | 2026-09-03 17:57:27 | 43.08203 | 22.12991 | 111° | 84km/h | 13609m | 4.2m/s | -54.6°C | 5.9% | 0hPa | 0V | 00:00:00 | 00:00:00 | 00:00:00 | |
| LZ4TU-5 | 2026-09-03 17:55:57 | 43.08677 | 22.11040 | 113° | 62km/h | 13176m | 4.8m/s | -53.5°C | 10.4% | 0hPa | 0V | 00:00:00 | 00:00:00 | 00:00:00 | |
| LZ4TU-5 | 2026-09-03 17:54:32 | 43.09319 | 22.09180 | 112° | 73km/h | 12787m | 4.6m/s | -55.5°C | 17.6% | 0hPa | 0V | 00:00:00 | 00:00:00 | 00:00:00 | |
| LZ4TU-5 | 2026-09-03 17:54:27 | 43.09357 | 22.09068 | 122° | 78km/h | 12764m | 4.2m/s | -55.5°C | 17.8% | 0hPa | 0V | 00:00:00 | 00:00:00 | 00:00:00 | |
| LZ4TU-5 | 2026-09-03 17:52:58 | 43.09977 | 22.07201 | 128° | 55km/h | 12287m | 5.8m/s | -54.7°C | 23.7% | 0hPa | 0V | 00:00:00 | 00:00:00 | 00:00:00 | |
| LZ4TU-5 | 2026-09-03 17:52:53 | 43.10001 | 22.07125 | 127° | 49km/h | 12262m | 6.3m/s | -54.5°C | 24.3% | 0hPa | 0V | 00:00:00 | 00:00:00 | 00:00:00 | |
| LZ4TU-5 | 2026-09-03 17:51:19 | 43.11238 | 22.05411 | 141° | 78km/h | 11715m | 5.7m/s | -55.4°C | 33.6% | 0hPa | 0V | 00:00:00 | 00:00:00 | 00:00:00 | |
| LZ4TU-5 | 2026-09-03 17:51:14 | 43.11315 | 22.05323 | 134° | 73km/h | 11693m | 4.0m/s | -55.3°C | 0% | 0hPa | 0V | 00:00:00 | 00:00:00 | 00:00:00 | |
| LZ4TU-5 | 2026-09-03 17:49:51 | 43.12366 | 22.04054 | 148° | 57km/h | 11272m | 7.0m/s | -52.4°C | 30.4% | 0hPa | 0V | 00:00:00 | 00:00:00 | 00:00:00 | |
| LZ4TU-5 | 2026-09-03 17:49:47 | 43.12417 | 22.03996 | 143° | 68km/h | 11250m | 4.3m/s | -52.2°C | 30.3% | 0hPa | 0V | 00:00:00 | 00:00:00 | 00:00:00 | |
| LZ4TU-5 | 2026-09-03 17:48:21 | 43.13912 | 22.03022 | 159° | 77km/h | 10759m | 5.7m/s | -49.7°C | 35.9% | 0hPa | 0V | 00:00:00 | 00:00:00 | 00:00:00 | |
| LZ4TU-5 | 2026-09-03 17:48:16 | 43.14014 | 22.02985 | 162° | 95km/h | 10736m | 3.8m/s | -49.5°C | 36.4% | 0hPa | 0V | 00:00:00 | 00:00:00 | 00:00:00 | |
| LZ4TU-5 | 2026-09-03 17:46:48 | 43.16011 | 22.01891 | 152° | 95km/h | 10300m | 6.9m/s | -46.2°C | 36.5% | 0hPa | 0V | 00:00:00 | 00:00:00 | 00:00:00 | |
| LZ4TU-5 | 2026-09-03 17:45:30 | 43.17674 | 22.00872 | 153° | 99km/h | 9889m | 5.3m/s | -42.8°C | 45.8% | 0hPa | 0V | 00:00:00 | 00:00:00 | 00:00:00 | |
| LZ4TU-5 | 2026-09-03 17:45:26 | 43.17758 | 22.00826 | 158° | 88km/h | 9868m | 4.4m/s | -42.7°C | 46.6% | 0hPa | 0V | 00:00:00 | 00:00:00 | 00:00:00 | |
| LZ4TU-5 | 2026-09-03 17:44:13 | 43.19323 | 21.99736 | 157° | 102km/h | 9492m | 6.5m/s | -40.1°C | 37.5% | 0hPa | 0V | 00:00:00 | 00:00:00 | 00:00:00 | |
| LZ4TU-5 | 2026-09-03 17:44:09 | 43.19394 | 21.99658 | 137° | 69km/h | 9465m | 5.7m/s | -39.8°C | 36.4% | 0hPa | 0V | 00:00:00 | 00:00:00 | 00:00:00 | |
| LZ4TU-5 | 2026-09-03 17:42:54 | 43.20651 | 21.98768 | 166° | 71km/h | 8983m | 7.6m/s | -35.2°C | 18.8% | 0hPa | 0V | 00:00:00 | 00:00:00 | 00:00:00 | |
| LZ4TU-5 | 2026-09-03 17:42:49 | 43.20732 | 21.98755 | 163° | 66km/h | 8947m | 7.2m/s | -34.9°C | 0% | 0hPa | 0V | 00:00:00 | 00:00:00 | 00:00:00 | |
| LZ4TU-5 | 2026-09-03 17:41:34 | 43.21871 | 21.98150 | 185° | 55km/h | 8502m | 6.6m/s | -30.6°C | 11.4% | 0hPa | 0V | 00:00:00 | 00:00:00 | 00:00:00 | |
| LZ4TU-5 | 2026-09-03 17:41:30 | 43.21923 | 21.98115 | 139° | 69km/h | 8475m | 5.4m/s | -30.4°C | 11.0% | 0hPa | 0V | 00:00:00 | 00:00:00 | 00:00:00 | |
| LZ4TU-5 | 2026-09-03 17:40:16 | 43.22856 | 21.97547 | 152° | 57km/h | 8065m | 5.5m/s | -27.6°C | 13.4% | 0hPa | 0V | 00:00:00 | 00:00:00 | 00:00:00 | |
| LZ4TU-5 | 2026-09-03 17:38:51 | 43.23950 | 21.96581 | 149° | 69km/h | 7669m | 4.7m/s | -25.4°C | 16.3% | 0hPa | 0V | 00:00:00 | 00:00:00 | 00:00:00 | |
| LZ4TU-5 | 2026-09-03 17:38:47 | 43.24005 | 21.96535 | 153° | 64km/h | 7649m | 6.2m/s | -25.4°C | 17.8% | 0hPa | 0V | 00:00:00 | 00:00:00 | 00:00:00 | |
| LZ4TU-5 | 2026-09-03 17:37:25 | 43.24897 | 21.95683 | 155° | 60km/h | 7276m | 7.0m/s | -23.2°C | 23.5% | 0hPa | 0V | 00:00:00 | 00:00:00 | 00:00:00 | |
| LZ4TU-5 | 2026-09-03 17:37:20 | 43.24951 | 21.95640 | 148° | 53km/h | 7248m | 3.2m/s | -23.0°C | 22.0% | 0hPa | 0V | 00:00:00 | 00:00:00 | 00:00:00 | |
| LZ4TU-5 | 2026-09-03 17:36:06 | 43.25703 | 21.94855 | 153° | 35km/h | 6918m | 5.1m/s | -20.9°C | 24.3% | 0hPa | 0V | 00:00:00 | 00:00:00 | 00:00:00 | |
| LZ4TU-5 | 2026-09-03 17:36:01 | 43.25739 | 21.94810 | 122° | 40km/h | 6891m | 4.7m/s | -20.7°C | 24.3% | 0hPa | 0V | 00:00:00 | 00:00:00 | 00:00:00 | |
| LZ4TU-5 | 2026-09-03 17:34:45 | 43.26312 | 21.94046 | 163° | 46km/h | 6525m | 2.0m/s | -18.7°C | 55.7% | 0hPa | 0V | 00:00:00 | 00:00:00 | 00:00:00 | |
| LZ4TU-5 | 2026-09-03 17:34:40 | 43.26341 | 21.93997 | 105° | 42km/h | 6500m | 5.2m/s | -18.6°C | 56.9% | 0hPa | 0V | 00:00:00 | 00:00:00 | 00:00:00 | |
| LZ4TU-5 | 2026-09-03 17:33:23 | 43.26759 | 21.93177 | 124° | 37km/h | 6099m | 4.6m/s | -15.4°C | 56.8% | 0hPa | 0V | 00:00:00 | 00:00:00 | 00:00:00 | |
| LZ4TU-5 | 2026-09-03 17:33:18 | 43.26757 | 21.93143 | 46° | 18km/h | 6069m | 4.1m/s | -15.2°C | 57.6% | 0hPa | 0V | 00:00:00 | 00:00:00 | 00:00:00 | |
| LZ4TU-5 | 2026-09-03 17:32:00 | 43.27051 | 21.92527 | 132° | 40km/h | 5622m | 7.7m/s | -12.0°C | 55.6% | 0hPa | 0V | 00:00:00 | 00:00:00 | 00:00:00 | |
| LZ4TU-5 | 2026-09-03 17:31:55 | 43.27093 | 21.92507 | 167° | 31km/h | 5595m | 5.0m/s | -11.8°C | 54.7% | 0hPa | 0V | 00:00:00 | 00:00:00 | 00:00:00 | |
| LZ4TU-5 | 2026-09-03 17:30:11 | 43.27712 | 21.91571 | 157° | 35km/h | 4997m | 6.2m/s | -7.3°C | 46.5% | 0hPa | 0V | 00:00:00 | 00:00:00 | 00:00:00 | |
| LZ4TU-5 | 2026-09-03 17:30:07 | 43.27749 | 21.91527 | 142° | 49km/h | 4974m | 4.1m/s | -7.1°C | 0% | 0hPa | 0V | 00:00:00 | 00:00:00 | 00:00:00 | |
| LZ4TU-5 | 2026-09-03 17:29:08 | 43.28160 | 21.91140 | 116° | 20km/h | 4658m | 4.9m/s | -5.3°C | 32.9% | 0hPa | 0V | 00:00:00 | 00:00:00 | 00:00:00 | |
| LZ4TU-5 | 2026-09-03 17:29:03 | 43.28194 | 21.91110 | 168° | 35km/h | 4627m | 6.8m/s | -5.2°C | 30.9% | 0hPa | 0V | 00:00:00 | 00:00:00 | 00:00:00 | |
| LZ4TU-5 | 2026-09-03 17:28:02 | 43.28484 | 21.90760 | 126° | 31km/h | 4302m | 5.0m/s | -4.0°C | 23.7% | 0hPa | 0V | 00:00:00 | 00:00:00 | 00:00:00 | |
| LZ4TU-5 | 2026-09-03 17:27:58 | 43.28485 | 21.90741 | 0° | 0km/h | 4277m | 4.7m/s | -3.8°C | 0% | 0hPa | 0V | 00:00:00 | 00:00:00 | 00:00:00 | |
| LZ4TU-5 | 2026-09-03 17:26:49 | 43.28750 | 21.90539 | 166° | 13km/h | 3895m | 6.7m/s | -1.0°C | 23.8% | 0hPa | 0V | 00:00:00 | 00:00:00 | 00:00:00 | |
| LZ4TU-5 | 2026-09-03 17:26:45 | 43.28777 | 21.90547 | 196° | 24km/h | 3874m | 4.6m/s | -0.8°C | 24.0% | 0hPa | 0V | 00:00:00 | 00:00:00 | 00:00:00 | |
| LZ4TU-5 | 2026-09-03 17:25:45 | 43.29076 | 21.90434 | 142° | 22km/h | 3545m | 5.4m/s | 1.6°C | 30.2% | 0hPa | 0V | 00:00:00 | 00:00:00 | 00:00:00 | |
| LZ4TU-5 | 2026-09-03 17:25:40 | 43.29114 | 21.90417 | 205° | 33km/h | 3512m | 5.6m/s | 2.0°C | 0% | 0hPa | 0V | 00:00:00 | 00:00:00 | 00:00:00 | |
| LZ4TU-5 | 2026-09-03 17:25:33 | 43.29136 | 21.90413 | 95° | 9km/h | 3475m | 5.4m/s | 2.3°C | 28.3% | 0hPa | 0V | 00:00:00 | 00:00:00 | 00:00:00 | |
| LZ4TU-5 | 2026-09-03 17:25:29 | 43.29155 | 21.90416 | 187° | 40km/h | 3454m | 6.8m/s | 2.4°C | 28.5% | 0hPa | 0V | 00:00:00 | 00:00:00 | 00:00:00 | |
| LZ4TU-5 | 2026-09-03 17:25:25 | 43.29196 | 21.90406 | 154° | 27km/h | 3433m | 5.9m/s | 2.7°C | 27.3% | 0hPa | 0V | 00:00:00 | 00:00:00 | 00:00:00 | |
| LZ4TU-5 | 2026-09-03 17:25:20 | 43.29207 | 21.90382 | 159° | 20km/h | 3408m | 4.4m/s | 2.9°C | 24.6% | 0hPa | 0V | 00:00:00 | 00:00:00 | 00:00:00 | |
| LZ4TU-5 | 2026-09-03 17:24:42 | 43.29418 | 21.90368 | 163° | 26km/h | 3215m | 5.3m/s | 3.3°C | 38.6% | 0hPa | 0V | 00:00:00 | 00:00:00 | 00:00:00 |